sensor_id;sensor_type;location;lat;lon;timestamp;P1;durP1;ratioP1;P2;durP2;ratioP2
74335;SDS011;62755;-33.398;-70.572;2022-09-01T00:00:28;43.00;;;23.38;;
74335;SDS011;62755;-33.398;-70.572;2022-09-01T00:02:58;45.75;;;23.85;;
74335;SDS011;62755;-33.398;-70.572;2022-09-01T00:05:28;45.58;;;23.15;;
74335;SDS011;62755;-33.398;-70.572;2022-09-01T00:07:58;37.72;;;22.83;;
74335;SDS011;62755;-33.398;-70.572;2022-09-01T00:10:28;38.47;;;21.60;;
74335;SDS011;62755;-33.398;-70.572;2022-09-01T00:12:59;44.00;;;21.88;;
74335;SDS011;62755;-33.398;-70.572;2022-09-01T00:15:31;36.72;;;21.27;;
74335;SDS011;62755;-33.398;-70.572;2022-09-01T00:18:01;41.50;;;23.27;;
74335;SDS011;62755;-33.398;-70.572;2022-09-01T00:20:32;38.85;;;23.55;;
74335;SDS011;62755;-33.398;-70.572;2022-09-01T00:23:02;52.85;;;22.70;;
74335;SDS011;62755;-33.398;-70.572;2022-09-01T00:25:31;38.83;;;22.30;;
74335;SDS011;62755;-33.398;-70.572;2022-09-01T00:28:03;49.28;;;29.73;;
74335;SDS011;62755;-33.398;-70.572;2022-09-01T00:30:33;42.42;;;22.38;;
74335;SDS011;62755;-33.398;-70.572;2022-09-01T00:33:02;38.72;;;21.98;;
74335;SDS011;62755;-33.398;-70.572;2022-09-01T00:35:32;39.17;;;20.90;;
74335;SDS011;62755;-33.398;-70.572;2022-09-01T00:38:02;40.45;;;20.95;;
74335;SDS011;62755;-33.398;-70.572;2022-09-01T00:40:32;38.08;;;23.77;;
74335;SDS011;62755;-33.398;-70.572;2022-09-01T00:43:11;41.70;;;23.02;;
74335;SDS011;62755;-33.398;-70.572;2022-09-01T00:45:41;40.45;;;23.23;;
74335;SDS011;62755;-33.398;-70.572;2022-09-01T00:48:11;39.00;;;22.58;;
74335;SDS011;62755;-33.398;-70.572;2022-09-01T00:50:40;45.70;;;25.63;;
74335;SDS011;62755;-33.398;-70.572;2022-09-01T00:53:11;38.78;;;24.33;;
74335;SDS011;62755;-33.398;-70.572;2022-09-01T00:55:41;44.03;;;25.27;;
74335;SDS011;62755;-33.398;-70.572;2022-09-01T00:58:12;45.22;;;25.30;;
74335;SDS011;62755;-33.398;-70.572;2022-09-01T01:00:42;47.03;;;25.27;;
74335;SDS011;62755;-33.398;-70.572;2022-09-01T01:03:14;44.28;;;24.73;;
74335;SDS011;62755;-33.398;-70.572;2022-09-01T01:05:45;42.88;;;25.05;;
74335;SDS011;62755;-33.398;-70.572;2022-09-01T01:08:18;43.70;;;24.33;;
74335;SDS011;62755;-33.398;-70.572;2022-09-01T01:10:52;42.05;;;25.08;;
74335;SDS011;62755;-33.398;-70.572;2022-09-01T01:13:23;41.08;;;23.42;;
74335;SDS011;62755;-33.398;-70.572;2022-09-01T01:16:01;45.00;;;25.75;;
74335;SDS011;62755;-33.398;-70.572;2022-09-01T01:18:36;43.90;;;24.67;;
74335;SDS011;62755;-33.398;-70.572;2022-09-01T01:21:09;47.70;;;24.30;;
74335;SDS011;62755;-33.398;-70.572;2022-09-01T01:24:05;38.13;;;18.95;;
74335;SDS011;62755;-33.398;-70.572;2022-09-01T01:26:38;47.95;;;20.38;;
74335;SDS011;62755;-33.398;-70.572;2022-09-01T01:29:07;47.42;;;19.10;;
74335;SDS011;62755;-33.398;-70.572;2022-09-01T01:31:37;48.00;;;19.77;;
74335;SDS011;62755;-33.398;-70.572;2022-09-01T01:34:07;39.42;;;20.08;;
74335;SDS011;62755;-33.398;-70.572;2022-09-01T01:36:37;97.53;;;51.05;;
74335;SDS011;62755;-33.398;-70.572;2022-09-01T01:39:09;52.17;;;23.83;;
74335;SDS011;62755;-33.398;-70.572;2022-09-01T01:41:42;56.40;;;26.33;;
74335;SDS011;62755;-33.398;-70.572;2022-09-01T01:44:14;51.30;;;25.83;;
74335;SDS011;62755;-33.398;-70.572;2022-09-01T01:46:46;55.33;;;28.23;;
74335;SDS011;62755;-33.398;-70.572;2022-09-01T01:49:18;67.70;;;31.17;;
74335;SDS011;62755;-33.398;-70.572;2022-09-01T01:51:50;54.92;;;28.38;;
74335;SDS011;62755;-33.398;-70.572;2022-09-01T01:54:22;52.63;;;24.27;;
74335;SDS011;62755;-33.398;-70.572;2022-09-01T01:56:59;53.22;;;25.63;;
74335;SDS011;62755;-33.398;-70.572;2022-09-01T01:59:29;50.60;;;23.95;;
74335;SDS011;62755;-33.398;-70.572;2022-09-01T02:02:00;45.50;;;21.77;;
74335;SDS011;62755;-33.398;-70.572;2022-09-01T02:04:34;48.63;;;20.88;;
74335;SDS011;62755;-33.398;-70.572;2022-09-01T02:07:08;41.65;;;20.63;;
74335;SDS011;62755;-33.398;-70.572;2022-09-01T02:09:38;43.90;;;20.27;;
74335;SDS011;62755;-33.398;-70.572;2022-09-01T02:12:12;52.97;;;24.95;;
74335;SDS011;62755;-33.398;-70.572;2022-09-01T02:14:44;56.88;;;25.42;;
74335;SDS011;62755;-33.398;-70.572;2022-09-01T02:17:14;51.25;;;21.13;;
74335;SDS011;62755;-33.398;-70.572;2022-09-01T02:19:46;40.20;;;19.17;;
74335;SDS011;62755;-33.398;-70.572;2022-09-01T02:22:15;48.40;;;20.13;;
74335;SDS011;62755;-33.398;-70.572;2022-09-01T02:24:46;42.70;;;19.45;;
74335;SDS011;62755;-33.398;-70.572;2022-09-01T02:27:19;46.30;;;21.00;;
74335;SDS011;62755;-33.398;-70.572;2022-09-01T02:29:51;43.40;;;18.63;;
74335;SDS011;62755;-33.398;-70.572;2022-09-01T02:32:20;56.95;;;25.90;;
74335;SDS011;62755;-33.398;-70.572;2022-09-01T02:34:50;42.97;;;19.65;;
74335;SDS011;62755;-33.398;-70.572;2022-09-01T02:37:21;45.45;;;21.00;;
74335;SDS011;62755;-33.398;-70.572;2022-09-01T02:39:51;49.45;;;21.38;;
74335;SDS011;62755;-33.398;-70.572;2022-09-01T02:42:24;47.40;;;20.63;;
74335;SDS011;62755;-33.398;-70.572;2022-09-01T02:44:55;42.88;;;21.30;;
74335;SDS011;62755;-33.398;-70.572;2022-09-01T02:47:25;53.72;;;21.38;;
74335;SDS011;62755;-33.398;-70.572;2022-09-01T02:49:55;55.13;;;22.38;;
74335;SDS011;62755;-33.398;-70.572;2022-09-01T02:52:28;41.17;;;22.08;;
74335;SDS011;62755;-33.398;-70.572;2022-09-01T02:55:05;56.47;;;22.90;;
74335;SDS011;62755;-33.398;-70.572;2022-09-01T02:57:38;46.78;;;21.83;;
74335;SDS011;62755;-33.398;-70.572;2022-09-01T03:00:08;45.83;;;20.15;;
74335;SDS011;62755;-33.398;-70.572;2022-09-01T03:02:47;42.03;;;18.55;;
74335;SDS011;62755;-33.398;-70.572;2022-09-01T03:05:18;43.38;;;20.15;;
74335;SDS011;62755;-33.398;-70.572;2022-09-01T03:07:51;48.58;;;23.08;;
74335;SDS011;62755;-33.398;-70.572;2022-09-01T03:10:23;90.90;;;41.00;;
74335;SDS011;62755;-33.398;-70.572;2022-09-01T03:13:00;62.22;;;30.20;;
74335;SDS011;62755;-33.398;-70.572;2022-09-01T03:15:31;63.50;;;31.33;;
74335;SDS011;62755;-33.398;-70.572;2022-09-01T03:18:03;57.40;;;25.73;;
74335;SDS011;62755;-33.398;-70.572;2022-09-01T03:20:34;54.70;;;26.55;;
74335;SDS011;62755;-33.398;-70.572;2022-09-01T03:26:05;60.75;;;27.58;;
74335;SDS011;62755;-33.398;-70.572;2022-09-01T03:28:36;45.70;;;22.77;;
74335;SDS011;62755;-33.398;-70.572;2022-09-01T03:31:06;45.55;;;22.25;;
74335;SDS011;62755;-33.398;-70.572;2022-09-01T03:33:36;47.53;;;23.92;;
74335;SDS011;62755;-33.398;-70.572;2022-09-01T03:36:06;50.17;;;25.63;;
74335;SDS011;62755;-33.398;-70.572;2022-09-01T03:38:44;49.42;;;24.15;;
74335;SDS011;62755;-33.398;-70.572;2022-09-01T03:41:14;49.90;;;24.50;;
74335;SDS011;62755;-33.398;-70.572;2022-09-01T03:43:48;54.83;;;27.10;;
74335;SDS011;62755;-33.398;-70.572;2022-09-01T03:46:20;46.00;;;24.02;;
74335;SDS011;62755;-33.398;-70.572;2022-09-01T03:48:50;69.88;;;30.55;;
74335;SDS011;62755;-33.398;-70.572;2022-09-01T03:51:20;65.70;;;31.63;;
74335;SDS011;62755;-33.398;-70.572;2022-09-01T03:53:51;47.55;;;24.08;;
74335;SDS011;62755;-33.398;-70.572;2022-09-01T03:56:21;57.65;;;29.48;;
74335;SDS011;62755;-33.398;-70.572;2022-09-01T03:58:54;49.58;;;26.02;;
74335;SDS011;62755;-33.398;-70.572;2022-09-01T04:01:25;73.75;;;35.63;;
74335;SDS011;62755;-33.398;-70.572;2022-09-01T04:03:56;55.55;;;26.92;;
74335;SDS011;62755;-33.398;-70.572;2022-09-01T04:06:26;91.10;;;38.42;;
74335;SDS011;62755;-33.398;-70.572;2022-09-01T04:08:56;69.25;;;25.65;;
74335;SDS011;62755;-33.398;-70.572;2022-09-01T04:11:27;104.22;;;43.10;;
74335;SDS011;62755;-33.398;-70.572;2022-09-01T04:14:00;81.40;;;32.08;;
74335;SDS011;62755;-33.398;-70.572;2022-09-01T04:16:30;83.25;;;32.60;;
74335;SDS011;62755;-33.398;-70.572;2022-09-01T04:19:33;80.40;;;32.05;;
74335;SDS011;62755;-33.398;-70.572;2022-09-01T04:22:04;45.25;;;20.55;;
74335;SDS011;62755;-33.398;-70.572;2022-09-01T04:24:39;47.83;;;22.65;;
74335;SDS011;62755;-33.398;-70.572;2022-09-01T04:27:10;50.10;;;22.10;;
74335;SDS011;62755;-33.398;-70.572;2022-09-01T04:29:42;56.05;;;26.10;;
74335;SDS011;62755;-33.398;-70.572;2022-09-01T04:32:13;39.83;;;19.95;;
74335;SDS011;62755;-33.398;-70.572;2022-09-01T04:34:46;44.92;;;19.98;;
74335;SDS011;62755;-33.398;-70.572;2022-09-01T04:37:19;45.95;;;20.58;;
74335;SDS011;62755;-33.398;-70.572;2022-09-01T04:39:49;41.65;;;20.73;;
74335;SDS011;62755;-33.398;-70.572;2022-09-01T04:42:21;40.97;;;21.23;;
74335;SDS011;62755;-33.398;-70.572;2022-09-01T04:44:55;39.88;;;18.80;;
74335;SDS011;62755;-33.398;-70.572;2022-09-01T04:47:26;46.17;;;21.45;;
74335;SDS011;62755;-33.398;-70.572;2022-09-01T04:49:56;37.10;;;19.70;;
74335;SDS011;62755;-33.398;-70.572;2022-09-01T04:52:26;37.95;;;20.17;;
74335;SDS011;62755;-33.398;-70.572;2022-09-01T04:54:56;41.83;;;21.65;;
74335;SDS011;62755;-33.398;-70.572;2022-09-01T04:57:28;38.47;;;19.50;;
74335;SDS011;62755;-33.398;-70.572;2022-09-01T04:59:59;40.65;;;20.33;;
74335;SDS011;62755;-33.398;-70.572;2022-09-01T05:02:29;45.22;;;20.92;;
74335;SDS011;62755;-33.398;-70.572;2022-09-01T05:04:59;46.78;;;20.58;;
74335;SDS011;62755;-33.398;-70.572;2022-09-01T05:07:29;34.65;;;20.27;;
74335;SDS011;62755;-33.398;-70.572;2022-09-01T05:09:59;41.70;;;21.77;;
74335;SDS011;62755;-33.398;-70.572;2022-09-01T05:12:29;38.88;;;21.08;;
74335;SDS011;62755;-33.398;-70.572;2022-09-01T05:15:02;47.17;;;20.92;;
74335;SDS011;62755;-33.398;-70.572;2022-09-01T05:17:34;37.65;;;20.83;;
74335;SDS011;62755;-33.398;-70.572;2022-09-01T05:20:04;40.95;;;20.48;;
74335;SDS011;62755;-33.398;-70.572;2022-09-01T05:22:35;43.25;;;19.55;;
74335;SDS011;62755;-33.398;-70.572;2022-09-01T05:25:06;38.60;;;20.48;;
74335;SDS011;62755;-33.398;-70.572;2022-09-01T05:27:40;44.80;;;21.48;;
74335;SDS011;62755;-33.398;-70.572;2022-09-01T05:30:16;42.95;;;20.85;;
74335;SDS011;62755;-33.398;-70.572;2022-09-01T05:32:46;46.13;;;21.65;;
74335;SDS011;62755;-33.398;-70.572;2022-09-01T05:35:17;45.97;;;20.67;;
74335;SDS011;62755;-33.398;-70.572;2022-09-01T05:37:49;52.72;;;21.98;;
74335;SDS011;62755;-33.398;-70.572;2022-09-01T05:40:19;41.33;;;21.70;;
74335;SDS011;62755;-33.398;-70.572;2022-09-01T05:42:49;43.40;;;23.38;;
74335;SDS011;62755;-33.398;-70.572;2022-09-01T05:45:22;48.15;;;21.30;;
74335;SDS011;62755;-33.398;-70.572;2022-09-01T05:47:52;40.85;;;22.02;;
74335;SDS011;62755;-33.398;-70.572;2022-09-01T05:50:22;39.15;;;20.70;;
74335;SDS011;62755;-33.398;-70.572;2022-09-01T05:52:53;45.03;;;21.38;;
74335;SDS011;62755;-33.398;-70.572;2022-09-01T05:55:22;44.22;;;21.10;;
74335;SDS011;62755;-33.398;-70.572;2022-09-01T05:57:52;42.25;;;20.55;;
74335;SDS011;62755;-33.398;-70.572;2022-09-01T06:00:24;39.38;;;19.85;;
74335;SDS011;62755;-33.398;-70.572;2022-09-01T06:02:59;47.65;;;20.08;;
74335;SDS011;62755;-33.398;-70.572;2022-09-01T06:05:33;45.75;;;19.88;;
74335;SDS011;62755;-33.398;-70.572;2022-09-01T06:08:03;40.25;;;19.48;;
74335;SDS011;62755;-33.398;-70.572;2022-09-01T06:10:35;47.13;;;21.65;;
74335;SDS011;62755;-33.398;-70.572;2022-09-01T06:13:06;39.13;;;19.75;;
74335;SDS011;62755;-33.398;-70.572;2022-09-01T06:15:38;40.88;;;19.23;;
74335;SDS011;62755;-33.398;-70.572;2022-09-01T06:18:09;38.83;;;20.15;;
74335;SDS011;62755;-33.398;-70.572;2022-09-01T06:20:43;40.92;;;19.98;;
74335;SDS011;62755;-33.398;-70.572;2022-09-01T06:23:14;41.42;;;20.85;;
74335;SDS011;62755;-33.398;-70.572;2022-09-01T06:25:44;33.10;;;20.05;;
74335;SDS011;62755;-33.398;-70.572;2022-09-01T06:28:15;45.58;;;20.83;;
74335;SDS011;62755;-33.398;-70.572;2022-09-01T06:30:49;40.20;;;19.02;;
74335;SDS011;62755;-33.398;-70.572;2022-09-01T06:33:19;37.53;;;19.75;;
74335;SDS011;62755;-33.398;-70.572;2022-09-01T06:35:50;32.85;;;18.77;;
74335;SDS011;62755;-33.398;-70.572;2022-09-01T06:38:20;42.25;;;20.23;;
74335;SDS011;62755;-33.398;-70.572;2022-09-01T06:40:58;37.72;;;20.13;;
74335;SDS011;62755;-33.398;-70.572;2022-09-01T06:43:29;40.00;;;19.77;;
74335;SDS011;62755;-33.398;-70.572;2022-09-01T06:46:01;42.42;;;21.42;;
74335;SDS011;62755;-33.398;-70.572;2022-09-01T06:48:31;35.88;;;19.20;;
74335;SDS011;62755;-33.398;-70.572;2022-09-01T06:51:01;38.65;;;21.33;;
74335;SDS011;62755;-33.398;-70.572;2022-09-01T06:53:34;43.58;;;20.00;;
74335;SDS011;62755;-33.398;-70.572;2022-09-01T06:56:04;44.03;;;19.88;;
74335;SDS011;62755;-33.398;-70.572;2022-09-01T06:58:36;47.90;;;19.83;;
74335;SDS011;62755;-33.398;-70.572;2022-09-01T07:01:09;36.85;;;20.70;;
74335;SDS011;62755;-33.398;-70.572;2022-09-01T07:03:40;35.20;;;20.23;;
74335;SDS011;62755;-33.398;-70.572;2022-09-01T07:06:10;43.97;;;21.33;;
74335;SDS011;62755;-33.398;-70.572;2022-09-01T07:08:40;43.08;;;20.10;;
74335;SDS011;62755;-33.398;-70.572;2022-09-01T07:11:15;42.67;;;20.10;;
74335;SDS011;62755;-33.398;-70.572;2022-09-01T07:13:50;39.53;;;20.23;;
74335;SDS011;62755;-33.398;-70.572;2022-09-01T07:16:24;40.80;;;22.05;;
74335;SDS011;62755;-33.398;-70.572;2022-09-01T07:18:55;43.65;;;21.15;;
74335;SDS011;62755;-33.398;-70.572;2022-09-01T07:21:27;43.85;;;20.80;;
74335;SDS011;62755;-33.398;-70.572;2022-09-01T07:23:59;38.58;;;19.48;;
74335;SDS011;62755;-33.398;-70.572;2022-09-01T07:26:30;38.47;;;19.67;;
74335;SDS011;62755;-33.398;-70.572;2022-09-01T07:29:01;37.90;;;21.10;;
74335;SDS011;62755;-33.398;-70.572;2022-09-01T07:31:34;39.45;;;19.63;;
74335;SDS011;62755;-33.398;-70.572;2022-09-01T07:34:06;39.88;;;21.45;;
74335;SDS011;62755;-33.398;-70.572;2022-09-01T07:36:38;43.45;;;19.40;;
74335;SDS011;62755;-33.398;-70.572;2022-09-01T07:39:08;39.72;;;20.20;;
74335;SDS011;62755;-33.398;-70.572;2022-09-01T07:41:39;46.72;;;20.65;;
74335;SDS011;62755;-33.398;-70.572;2022-09-01T07:44:09;37.85;;;20.75;;
74335;SDS011;62755;-33.398;-70.572;2022-09-01T07:46:41;43.05;;;21.58;;
74335;SDS011;62755;-33.398;-70.572;2022-09-01T07:49:11;42.08;;;21.10;;
74335;SDS011;62755;-33.398;-70.572;2022-09-01T07:51:40;42.20;;;21.25;;
74335;SDS011;62755;-33.398;-70.572;2022-09-01T07:54:15;47.13;;;21.58;;
74335;SDS011;62755;-33.398;-70.572;2022-09-01T07:56:48;41.63;;;20.67;;
74335;SDS011;62755;-33.398;-70.572;2022-09-01T07:59:20;42.78;;;21.00;;
74335;SDS011;62755;-33.398;-70.572;2022-09-01T08:01:54;39.03;;;20.77;;
74335;SDS011;62755;-33.398;-70.572;2022-09-01T08:04:29;42.47;;;20.90;;
74335;SDS011;62755;-33.398;-70.572;2022-09-01T08:06:59;43.90;;;22.17;;
74335;SDS011;62755;-33.398;-70.572;2022-09-01T08:09:29;49.10;;;23.42;;
74335;SDS011;62755;-33.398;-70.572;2022-09-01T08:11:59;39.78;;;20.98;;
74335;SDS011;62755;-33.398;-70.572;2022-09-01T08:14:29;34.42;;;19.92;;
74335;SDS011;62755;-33.398;-70.572;2022-09-01T08:17:00;33.22;;;19.88;;
74335;SDS011;62755;-33.398;-70.572;2022-09-01T08:19:30;42.90;;;20.65;;
74335;SDS011;62755;-33.398;-70.572;2022-09-01T08:22:00;46.13;;;21.25;;
74335;SDS011;62755;-33.398;-70.572;2022-09-01T08:24:30;36.95;;;19.90;;
74335;SDS011;62755;-33.398;-70.572;2022-09-01T08:27:00;36.78;;;19.80;;
74335;SDS011;62755;-33.398;-70.572;2022-09-01T08:29:30;41.13;;;18.08;;
74335;SDS011;62755;-33.398;-70.572;2022-09-01T08:32:02;40.50;;;18.25;;
74335;SDS011;62755;-33.398;-70.572;2022-09-01T08:34:32;37.05;;;19.42;;
74335;SDS011;62755;-33.398;-70.572;2022-09-01T08:37:02;42.35;;;20.00;;
74335;SDS011;62755;-33.398;-70.572;2022-09-01T08:39:32;37.13;;;20.23;;
74335;SDS011;62755;-33.398;-70.572;2022-09-01T08:42:03;36.75;;;18.77;;
74335;SDS011;62755;-33.398;-70.572;2022-09-01T08:44:39;37.45;;;18.77;;
74335;SDS011;62755;-33.398;-70.572;2022-09-01T08:47:16;37.08;;;18.23;;
74335;SDS011;62755;-33.398;-70.572;2022-09-01T08:49:47;39.78;;;19.02;;
74335;SDS011;62755;-33.398;-70.572;2022-09-01T08:52:20;37.67;;;18.90;;
74335;SDS011;62755;-33.398;-70.572;2022-09-01T08:54:55;36.95;;;18.63;;
74335;SDS011;62755;-33.398;-70.572;2022-09-01T08:57:30;31.87;;;17.87;;
74335;SDS011;62755;-33.398;-70.572;2022-09-01T09:00:03;36.05;;;18.83;;
74335;SDS011;62755;-33.398;-70.572;2022-09-01T09:02:39;35.60;;;19.27;;
74335;SDS011;62755;-33.398;-70.572;2022-09-01T09:05:21;40.97;;;20.25;;
74335;SDS011;62755;-33.398;-70.572;2022-09-01T09:08:01;38.58;;;21.42;;
74335;SDS011;62755;-33.398;-70.572;2022-09-01T09:13:20;37.15;;;19.75;;
74335;SDS011;62755;-33.398;-70.572;2022-09-01T09:15:57;40.35;;;20.02;;
74335;SDS011;62755;-33.398;-70.572;2022-09-01T09:18:31;39.13;;;21.50;;
74335;SDS011;62755;-33.398;-70.572;2022-09-01T09:21:08;40.50;;;22.80;;
74335;SDS011;62755;-33.398;-70.572;2022-09-01T09:23:44;40.53;;;21.90;;
74335;SDS011;62755;-33.398;-70.572;2022-09-01T09:26:15;37.78;;;21.35;;
74335;SDS011;62755;-33.398;-70.572;2022-09-01T09:28:46;44.08;;;20.60;;
74335;SDS011;62755;-33.398;-70.572;2022-09-01T09:31:29;39.92;;;22.48;;
74335;SDS011;62755;-33.398;-70.572;2022-09-01T09:34:02;44.15;;;22.35;;
74335;SDS011;62755;-33.398;-70.572;2022-09-01T09:36:43;44.63;;;21.65;;
74335;SDS011;62755;-33.398;-70.572;2022-09-01T09:39:16;37.78;;;21.98;;
74335;SDS011;62755;-33.398;-70.572;2022-09-01T09:42:00;46.42;;;22.77;;
74335;SDS011;62755;-33.398;-70.572;2022-09-01T09:44:38;44.47;;;23.00;;
74335;SDS011;62755;-33.398;-70.572;2022-09-01T09:47:19;39.20;;;22.77;;
74335;SDS011;62755;-33.398;-70.572;2022-09-01T09:50:21;40.42;;;21.77;;
74335;SDS011;62755;-33.398;-70.572;2022-09-01T09:53:09;41.00;;;22.02;;
74335;SDS011;62755;-33.398;-70.572;2022-09-01T09:55:51;43.85;;;22.70;;
74335;SDS011;62755;-33.398;-70.572;2022-09-01T09:58:29;42.60;;;22.13;;
74335;SDS011;62755;-33.398;-70.572;2022-09-01T10:01:05;41.50;;;23.17;;
74335;SDS011;62755;-33.398;-70.572;2022-09-01T10:03:41;37.80;;;23.10;;
74335;SDS011;62755;-33.398;-70.572;2022-09-01T10:06:28;47.83;;;24.35;;
74335;SDS011;62755;-33.398;-70.572;2022-09-01T10:11:32;42.88;;;20.85;;
74335;SDS011;62755;-33.398;-70.572;2022-09-01T10:14:06;47.72;;;22.58;;
74335;SDS011;62755;-33.398;-70.572;2022-09-01T10:16:41;47.28;;;22.55;;
74335;SDS011;62755;-33.398;-70.572;2022-09-01T10:19:14;45.78;;;22.42;;
74335;SDS011;62755;-33.398;-70.572;2022-09-01T10:21:46;45.03;;;22.98;;
74335;SDS011;62755;-33.398;-70.572;2022-09-01T10:24:17;47.60;;;24.08;;
74335;SDS011;62755;-33.398;-70.572;2022-09-01T10:29:24;46.20;;;23.77;;
74335;SDS011;62755;-33.398;-70.572;2022-09-01T10:31:57;48.75;;;23.20;;
74335;SDS011;62755;-33.398;-70.572;2022-09-01T10:34:32;38.63;;;23.13;;
74335;SDS011;62755;-33.398;-70.572;2022-09-01T10:37:06;41.75;;;23.40;;
74335;SDS011;62755;-33.398;-70.572;2022-09-01T10:39:47;47.38;;;23.60;;
74335;SDS011;62755;-33.398;-70.572;2022-09-01T10:42:48;41.95;;;23.90;;
74335;SDS011;62755;-33.398;-70.572;2022-09-01T10:45:28;44.97;;;22.88;;
74335;SDS011;62755;-33.398;-70.572;2022-09-01T10:50:53;40.65;;;23.23;;
74335;SDS011;62755;-33.398;-70.572;2022-09-01T10:54:04;45.92;;;23.70;;
74335;SDS011;62755;-33.398;-70.572;2022-09-01T10:56:38;45.05;;;24.65;;
74335;SDS011;62755;-33.398;-70.572;2022-09-01T10:59:22;43.50;;;22.23;;
74335;SDS011;62755;-33.398;-70.572;2022-09-01T11:07:42;46.25;;;22.60;;
74335;SDS011;62755;-33.398;-70.572;2022-09-01T11:10:20;47.00;;;23.42;;
74335;SDS011;62755;-33.398;-70.572;2022-09-01T11:13:06;49.35;;;24.45;;
74335;SDS011;62755;-33.398;-70.572;2022-09-01T11:16:26;41.58;;;22.77;;
74335;SDS011;62755;-33.398;-70.572;2022-09-01T11:19:17;41.78;;;23.20;;
74335;SDS011;62755;-33.398;-70.572;2022-09-01T11:22:10;39.17;;;23.40;;
74335;SDS011;62755;-33.398;-70.572;2022-09-01T11:25:07;46.90;;;23.40;;
74335;SDS011;62755;-33.398;-70.572;2022-09-01T11:28:04;44.58;;;22.38;;
74335;SDS011;62755;-33.398;-70.572;2022-09-01T11:31:02;44.40;;;22.00;;
74335;SDS011;62755;-33.398;-70.572;2022-09-01T11:34:10;40.70;;;22.23;;
74335;SDS011;62755;-33.398;-70.572;2022-09-01T11:36:46;42.60;;;21.40;;
74335;SDS011;62755;-33.398;-70.572;2022-09-01T11:39:33;41.60;;;21.00;;
74335;SDS011;62755;-33.398;-70.572;2022-09-01T11:42:11;37.83;;;20.98;;
74335;SDS011;62755;-33.398;-70.572;2022-09-01T11:44:50;38.70;;;20.33;;
74335;SDS011;62755;-33.398;-70.572;2022-09-01T11:49:54;40.22;;;20.50;;
74335;SDS011;62755;-33.398;-70.572;2022-09-01T11:52:26;44.92;;;21.40;;
74335;SDS011;62755;-33.398;-70.572;2022-09-01T11:54:57;48.78;;;21.48;;
74335;SDS011;62755;-33.398;-70.572;2022-09-01T11:57:28;44.67;;;22.08;;
74335;SDS011;62755;-33.398;-70.572;2022-09-01T12:00:03;39.17;;;21.00;;
74335;SDS011;62755;-33.398;-70.572;2022-09-01T12:02:35;42.00;;;22.58;;
74335;SDS011;62755;-33.398;-70.572;2022-09-01T12:05:22;51.28;;;22.33;;
74335;SDS011;62755;-33.398;-70.572;2022-09-01T12:07:57;39.08;;;22.40;;
74335;SDS011;62755;-33.398;-70.572;2022-09-01T12:10:30;46.90;;;23.70;;
74335;SDS011;62755;-33.398;-70.572;2022-09-01T12:13:02;46.80;;;23.30;;
74335;SDS011;62755;-33.398;-70.572;2022-09-01T12:15:36;46.42;;;22.90;;
74335;SDS011;62755;-33.398;-70.572;2022-09-01T12:18:08;45.97;;;22.58;;
74335;SDS011;62755;-33.398;-70.572;2022-09-01T12:20:40;45.35;;;22.13;;
74335;SDS011;62755;-33.398;-70.572;2022-09-01T12:23:15;47.25;;;22.98;;
74335;SDS011;62755;-33.398;-70.572;2022-09-01T12:25:50;46.78;;;23.60;;
74335;SDS011;62755;-33.398;-70.572;2022-09-01T12:28:21;51.20;;;23.55;;
74335;SDS011;62755;-33.398;-70.572;2022-09-01T12:30:53;46.45;;;22.33;;
74335;SDS011;62755;-33.398;-70.572;2022-09-01T12:33:23;46.08;;;22.67;;
74335;SDS011;62755;-33.398;-70.572;2022-09-01T12:38:41;45.67;;;24.10;;
74335;SDS011;62755;-33.398;-70.572;2022-09-01T12:41:24;45.67;;;24.23;;
74335;SDS011;62755;-33.398;-70.572;2022-09-01T12:47:03;53.00;;;23.73;;
74335;SDS011;62755;-33.398;-70.572;2022-09-01T12:49:35;52.55;;;24.73;;
74335;SDS011;62755;-33.398;-70.572;2022-09-01T12:52:14;61.67;;;26.27;;
74335;SDS011;62755;-33.398;-70.572;2022-09-01T12:54:51;50.05;;;25.70;;
74335;SDS011;62755;-33.398;-70.572;2022-09-01T12:57:35;49.42;;;25.42;;
74335;SDS011;62755;-33.398;-70.572;2022-09-01T13:00:14;56.25;;;25.13;;
74335;SDS011;62755;-33.398;-70.572;2022-09-01T13:02:48;40.17;;;23.33;;
74335;SDS011;62755;-33.398;-70.572;2022-09-01T13:05:23;53.28;;;24.35;;
74335;SDS011;62755;-33.398;-70.572;2022-09-01T13:07:56;58.25;;;25.30;;
74335;SDS011;62755;-33.398;-70.572;2022-09-01T13:10:29;54.88;;;25.55;;
74335;SDS011;62755;-33.398;-70.572;2022-09-01T13:13:01;53.60;;;24.58;;
74335;SDS011;62755;-33.398;-70.572;2022-09-01T13:15:32;51.70;;;25.65;;
74335;SDS011;62755;-33.398;-70.572;2022-09-01T13:18:04;61.13;;;24.25;;
74335;SDS011;62755;-33.398;-70.572;2022-09-01T13:20:34;55.88;;;24.42;;
74335;SDS011;62755;-33.398;-70.572;2022-09-01T13:23:03;62.58;;;25.40;;
74335;SDS011;62755;-33.398;-70.572;2022-09-01T13:25:33;151.20;;;38.25;;
74335;SDS011;62755;-33.398;-70.572;2022-09-01T13:28:04;110.88;;;36.20;;
74335;SDS011;62755;-33.398;-70.572;2022-09-01T13:30:35;68.20;;;28.23;;
74335;SDS011;62755;-33.398;-70.572;2022-09-01T13:33:07;62.42;;;27.30;;
74335;SDS011;62755;-33.398;-70.572;2022-09-01T13:35:37;63.08;;;28.73;;
74335;SDS011;62755;-33.398;-70.572;2022-09-01T13:38:07;59.58;;;28.70;;
74335;SDS011;62755;-33.398;-70.572;2022-09-01T13:40:40;51.38;;;27.15;;
74335;SDS011;62755;-33.398;-70.572;2022-09-01T13:43:11;78.55;;;34.13;;
74335;SDS011;62755;-33.398;-70.572;2022-09-01T13:45:41;57.13;;;28.27;;
74335;SDS011;62755;-33.398;-70.572;2022-09-01T13:48:12;54.75;;;28.80;;
74335;SDS011;62755;-33.398;-70.572;2022-09-01T13:50:43;54.80;;;27.25;;
74335;SDS011;62755;-33.398;-70.572;2022-09-01T13:53:14;60.20;;;27.90;;
74335;SDS011;62755;-33.398;-70.572;2022-09-01T13:55:44;52.88;;;29.45;;
74335;SDS011;62755;-33.398;-70.572;2022-09-01T13:58:15;57.90;;;29.20;;
74335;SDS011;62755;-33.398;-70.572;2022-09-01T14:00:46;71.72;;;28.58;;
74335;SDS011;62755;-33.398;-70.572;2022-09-01T14:03:18;48.17;;;26.13;;
74335;SDS011;62755;-33.398;-70.572;2022-09-01T14:05:50;59.83;;;27.13;;
74335;SDS011;62755;-33.398;-70.572;2022-09-01T14:08:19;60.78;;;27.23;;
74335;SDS011;62755;-33.398;-70.572;2022-09-01T14:10:50;57.13;;;26.45;;
74335;SDS011;62755;-33.398;-70.572;2022-09-01T14:13:20;57.40;;;27.00;;
74335;SDS011;62755;-33.398;-70.572;2022-09-01T14:15:51;56.67;;;28.70;;
74335;SDS011;62755;-33.398;-70.572;2022-09-01T14:18:23;60.75;;;27.70;;
74335;SDS011;62755;-33.398;-70.572;2022-09-01T14:20:56;61.00;;;28.45;;
74335;SDS011;62755;-33.398;-70.572;2022-09-01T14:23:27;68.20;;;30.25;;
74335;SDS011;62755;-33.398;-70.572;2022-09-01T14:25:56;62.30;;;30.15;;
74335;SDS011;62755;-33.398;-70.572;2022-09-01T14:28:26;67.40;;;28.60;;
74335;SDS011;62755;-33.398;-70.572;2022-09-01T14:30:56;47.58;;;28.15;;
74335;SDS011;62755;-33.398;-70.572;2022-09-01T14:33:32;57.65;;;28.42;;
74335;SDS011;62755;-33.398;-70.572;2022-09-01T14:36:03;55.13;;;28.05;;
74335;SDS011;62755;-33.398;-70.572;2022-09-01T14:38:33;59.67;;;28.00;;
74335;SDS011;62755;-33.398;-70.572;2022-09-01T14:41:03;67.55;;;28.98;;
74335;SDS011;62755;-33.398;-70.572;2022-09-01T14:43:33;48.00;;;26.65;;
74335;SDS011;62755;-33.398;-70.572;2022-09-01T14:46:03;59.60;;;28.10;;